createdAt,value
2018-03-21T00:00:42.433Z,1.2
2018-03-21T00:01:44.938Z,1.1
2018-03-21T00:02:47.306Z,1
2018-03-21T00:03:49.673Z,1
2018-03-21T00:04:52.293Z,1
2018-03-21T00:05:54.658Z,1
2018-03-21T00:06:57.308Z,1.4
2018-03-21T00:07:59.685Z,1.3
2018-03-21T00:09:02.616Z,1.2
2018-03-21T00:10:04.984Z,1.1
2018-03-21T00:11:07.356Z,1.3
2018-03-21T00:12:09.724Z,1
2018-03-21T00:13:12.081Z,0.9
2018-03-21T00:14:14.459Z,0.9
2018-03-21T00:15:17.110Z,0.9
2018-03-21T00:16:19.469Z,1.3
2018-03-21T00:17:21.936Z,1.3
2018-03-21T00:18:24.611Z,1.3
2018-03-21T00:19:26.969Z,1.2
2018-03-21T00:20:29.520Z,1.2
2018-03-21T00:21:31.882Z,1.1
2018-03-21T00:22:34.251Z,1
2018-03-21T00:23:36.833Z,1
2018-03-21T00:24:39.194Z,0.9
2018-03-21T00:25:41.562Z,0.9
2018-03-21T00:26:44.077Z,1.3
2018-03-21T00:27:46.718Z,1.2
2018-03-21T00:28:49.647Z,1.3
2018-03-21T00:29:52.323Z,1.3
2018-03-21T00:30:54.689Z,1.3
2018-03-21T00:31:57.345Z,1
2018-03-21T00:32:59.736Z,1.2
2018-03-21T00:34:02.099Z,1.1
2018-03-21T00:35:04.481Z,1
2018-03-21T00:36:08.096Z,1
2018-03-21T00:37:10.454Z,1
2018-03-21T00:38:13.116Z,0.9
2018-03-21T00:39:15.480Z,1
2018-03-21T00:40:18.444Z,0.9
2018-03-21T00:41:20.805Z,0.9
2018-03-21T00:42:23.171Z,1
2018-03-21T00:43:25.816Z,1.2
2018-03-21T00:44:28.191Z,1.3
2018-03-21T00:45:30.849Z,1.3
2018-03-21T00:46:33.222Z,1.2
2018-03-21T00:47:35.596Z,1
2018-03-21T00:48:37.962Z,1
2018-03-21T00:49:40.331Z,0.9
2018-03-21T00:50:42.704Z,1
2018-03-21T00:51:45.077Z,0.9
2018-03-21T00:52:47.445Z,1.2
2018-03-21T00:53:50.376Z,1.2
2018-03-21T00:54:52.743Z,1.3
2018-03-21T00:55:55.100Z,1.1
2018-03-21T00:56:57.465Z,1.2
2018-03-21T00:57:59.840Z,0.9
2018-03-21T00:59:02.204Z,0.9
2018-03-21T01:00:04.575Z,1
2018-03-21T01:01:06.939Z,1.3
2018-03-21T01:02:09.313Z,1.3
2018-03-21T01:03:11.687Z,1.3
2018-03-21T01:04:14.051Z,1.1
2018-03-21T01:05:16.418Z,1.1
2018-03-21T01:06:18.786Z,1
2018-03-21T01:07:21.159Z,0.9
2018-03-21T01:08:23.528Z,1
2018-03-21T01:09:25.899Z,1.2
2018-03-21T01:10:28.259Z,1.3
2018-03-21T01:11:30.626Z,1.3
2018-03-21T01:12:33.006Z,0.9
2018-03-21T01:13:35.378Z,1
2018-03-21T01:14:37.744Z,0.9
2018-03-21T01:15:40.110Z,1
2018-03-21T01:16:42.756Z,1.1
2018-03-21T01:17:45.128Z,1.2
2018-03-21T01:18:47.496Z,1.2
2018-03-21T01:19:49.850Z,1.2
2018-03-21T01:20:52.220Z,1
2018-03-21T01:21:54.601Z,1
2018-03-21T01:22:57.073Z,0.9
2018-03-21T01:23:59.429Z,0.9
2018-03-21T01:25:02.086Z,1.2
2018-03-21T01:26:04.492Z,1.2
2018-03-21T01:27:06.856Z,1.4
2018-03-21T01:28:09.514Z,1.1
2018-03-21T01:29:11.882Z,1.2
2018-03-21T01:30:14.246Z,1.2
2018-03-21T01:31:16.896Z,0.9
2018-03-21T01:32:19.767Z,0.9
2018-03-21T01:33:22.129Z,0.9
2018-03-21T01:34:24.509Z,0.9
2018-03-21T01:35:26.966Z,1
2018-03-21T01:36:29.329Z,1.3
2018-03-21T01:37:31.719Z,1.2
2018-03-21T01:38:34.180Z,1.1
2018-03-21T01:39:36.832Z,1.1
2018-03-21T01:40:39.198Z,1.1
2018-03-21T01:41:41.603Z,0.9
2018-03-21T01:42:43.967Z,0.9
2018-03-21T01:43:46.340Z,1
2018-03-21T01:44:48.725Z,1.2
2018-03-21T01:45:51.100Z,1.3
2018-03-21T01:46:53.462Z,1.1
2018-03-21T01:47:55.845Z,1.1
2018-03-21T01:48:58.503Z,1.1
2018-03-21T01:50:01.162Z,0.9
2018-03-21T01:51:03.814Z,1
2018-03-21T01:52:06.183Z,0.9
2018-03-21T01:53:09.143Z,0.9
2018-03-21T01:54:11.505Z,0.9
2018-03-21T01:55:13.873Z,0.9
2018-03-21T01:56:16.246Z,1.2
2018-03-21T01:57:18.892Z,1.1
2018-03-21T01:58:21.255Z,1.2
2018-03-21T01:59:23.918Z,1.2
2018-03-21T02:00:26.275Z,1.1
2018-03-21T02:01:28.941Z,1
2018-03-21T02:02:31.305Z,0.9
2018-03-21T02:03:33.669Z,1
2018-03-21T02:04:36.044Z,1
2018-03-21T02:05:38.423Z,1.1
2018-03-21T02:06:41.169Z,1.4
2018-03-21T02:07:43.540Z,1.3
2018-03-21T02:08:45.917Z,1.2
2018-03-21T02:09:48.680Z,1.1
2018-03-21T02:10:51.344Z,1.2
2018-03-21T02:11:53.715Z,1
2018-03-21T02:12:56.087Z,0.9
2018-03-21T02:13:58.457Z,0.9
2018-03-21T02:15:01.102Z,1
2018-03-21T02:16:03.748Z,1
2018-03-21T02:17:06.121Z,1.3
2018-03-21T02:18:08.484Z,1.2
2018-03-21T02:19:10.849Z,1.2
2018-03-21T02:20:13.216Z,0.9
2018-03-21T02:21:15.590Z,1.1
2018-03-21T02:22:18.237Z,0.9
2018-03-21T02:23:20.601Z,1
2018-03-21T02:24:22.970Z,0.9
2018-03-21T02:25:25.335Z,1
2018-03-21T02:26:27.973Z,1.3
2018-03-21T02:27:30.335Z,1.3
2018-03-21T02:28:32.704Z,1.2
2018-03-21T02:29:35.057Z,1.2
2018-03-21T02:30:38.110Z,0.9
2018-03-21T02:31:40.443Z,1.1
2018-03-21T02:32:42.801Z,1
2018-03-21T02:33:45.832Z,0.9
2018-03-21T02:34:48.195Z,0.9
2018-03-21T02:35:50.567Z,0.9
2018-03-21T02:36:52.936Z,0.9
2018-03-21T02:37:55.297Z,1.3
2018-03-21T02:38:57.918Z,1.2
2018-03-21T02:40:00.286Z,1.2
2018-03-21T02:41:02.919Z,1.2
2018-03-21T02:42:05.674Z,1.1
2018-03-21T02:43:08.041Z,1.1
2018-03-21T02:44:10.399Z,1
2018-03-21T02:45:13.412Z,0.9
2018-03-21T02:46:15.775Z,0.9
2018-03-21T02:47:18.142Z,0.9
2018-03-21T02:48:20.688Z,1
2018-03-21T02:49:23.048Z,1.3
2018-03-21T02:50:25.422Z,1.2
2018-03-21T02:51:27.782Z,1.2
2018-03-21T02:52:30.237Z,1.1
2018-03-21T02:53:32.603Z,1.1
2018-03-21T02:54:35.109Z,0.9
2018-03-21T02:55:37.583Z,0.9
2018-03-21T02:56:40.947Z,0.9
2018-03-21T02:57:43.610Z,0.9
2018-03-21T02:58:47.047Z,0.9
2018-03-21T02:59:49.408Z,1.1
2018-03-21T03:00:52.835Z,0.9
2018-03-21T03:01:55.512Z,1.2
2018-03-21T03:02:57.870Z,1.1
2018-03-21T03:04:00.541Z,1.1
2018-03-21T03:05:03.208Z,1
2018-03-21T03:06:05.827Z,1
2018-03-21T03:07:09.017Z,0.9
2018-03-21T03:08:11.562Z,1
2018-03-21T03:09:14.058Z,0.9
2018-03-21T03:10:17.153Z,0.9
2018-03-21T03:11:19.823Z,0.9
2018-03-21T03:12:22.946Z,0.9
2018-03-21T03:13:25.480Z,1.1
2018-03-21T03:14:28.824Z,1.2
2018-03-21T03:15:31.994Z,1.2
2018-03-21T03:16:34.367Z,1.2
2018-03-21T03:17:37.939Z,1.2
2018-03-21T03:18:40.905Z,1.3
2018-03-21T03:19:43.280Z,1.3
2018-03-21T03:20:45.929Z,1.3
2018-03-21T03:21:48.288Z,1.3
2018-03-21T03:22:50.650Z,1.2
2018-03-21T03:23:53.008Z,1.1
2018-03-21T03:24:55.379Z,0.9
2018-03-21T03:25:57.742Z,0.9
2018-03-21T03:27:00.117Z,0.9
2018-03-21T03:28:03.051Z,0.9
2018-03-21T03:29:05.720Z,1.3
2018-03-21T03:30:08.385Z,1.2
2018-03-21T03:31:10.767Z,1.2
2018-03-21T03:32:13.430Z,1.3
2018-03-21T03:33:16.168Z,1.2
2018-03-21T03:34:18.478Z,1.3
2018-03-21T03:35:20.834Z,1.3
2018-03-21T03:36:23.201Z,1.2
2018-03-21T03:37:25.848Z,1
2018-03-21T03:38:28.211Z,1.1
2018-03-21T03:39:30.871Z,0.9
2018-03-21T03:40:33.219Z,0.9
2018-03-21T03:41:35.590Z,1
2018-03-21T03:42:37.959Z,1.2
2018-03-21T03:43:40.322Z,1.3
2018-03-21T03:44:42.697Z,1.2
2018-03-21T03:45:45.061Z,1.2
2018-03-21T03:46:47.424Z,0.9
2018-03-21T03:47:50.089Z,1
2018-03-21T03:48:52.461Z,0.9
2018-03-21T03:49:54.818Z,0.9
2018-03-21T03:50:57.185Z,1.2
2018-03-21T03:51:59.555Z,1.1
2018-03-21T03:53:02.480Z,1.2
2018-03-21T03:54:04.848Z,1
2018-03-21T03:55:07.217Z,1.2
2018-03-21T03:56:09.589Z,1.2
2018-03-21T03:57:11.953Z,0.9
2018-03-21T03:58:14.328Z,0.9
2018-03-21T03:59:17.279Z,1
2018-03-21T04:00:19.644Z,1.5
2018-03-21T04:01:22.002Z,0.9
2018-03-21T04:02:24.366Z,1.2
2018-03-21T04:03:26.727Z,1.2
2018-03-21T04:04:29.097Z,1
2018-03-21T04:05:31.463Z,0.9
2018-03-21T04:06:34.406Z,0.9
2018-03-21T04:07:36.768Z,1
2018-03-21T04:08:39.129Z,0.9
2018-03-21T04:09:41.496Z,0.9
2018-03-21T04:10:43.868Z,1.2
2018-03-21T04:11:46.500Z,1.3
2018-03-21T04:12:48.873Z,1.3
2018-03-21T04:13:51.244Z,1.2
2018-03-21T04:14:53.610Z,1.2
2018-03-21T04:15:56.281Z,0.9
2018-03-21T04:16:58.644Z,1
2018-03-21T04:18:01.005Z,0.9
2018-03-21T04:19:03.376Z,0.9
2018-03-21T04:20:05.738Z,1.3
2018-03-21T04:21:08.107Z,1.2
2018-03-21T04:22:10.756Z,1.2
2018-03-21T04:23:13.152Z,1
2018-03-21T04:24:15.488Z,0.9
2018-03-21T04:25:17.859Z,0.9
2018-03-21T04:26:20.235Z,0.9
2018-03-21T04:27:22.902Z,0.9
2018-03-21T04:28:25.261Z,0.9
2018-03-21T04:29:27.623Z,1.2
2018-03-21T04:30:29.995Z,1.3
2018-03-21T04:31:32.355Z,1.2
2018-03-21T04:32:34.722Z,1.1
2018-03-21T04:33:37.086Z,0.9
2018-03-21T04:34:39.454Z,0.9
2018-03-21T04:35:41.828Z,0.9
2018-03-21T04:36:44.493Z,1.2
2018-03-21T04:37:46.842Z,1.2
2018-03-21T04:38:49.208Z,1.3
2018-03-21T04:39:51.856Z,1.1
2018-03-21T04:40:54.528Z,1.3
2018-03-21T04:41:56.893Z,1.1
2018-03-21T04:42:59.258Z,1.1
2018-03-21T04:44:01.622Z,0.9
2018-03-21T04:45:04.281Z,0.9
2018-03-21T04:46:06.640Z,0.9
2018-03-21T04:47:09.287Z,1
2018-03-21T04:48:11.654Z,1.4
2018-03-21T04:49:14.015Z,1.2
2018-03-21T04:50:16.377Z,1.2
2018-03-21T04:51:19.053Z,1.1
2018-03-21T04:52:21.419Z,1.2
2018-03-21T04:53:24.072Z,1
2018-03-21T04:54:26.429Z,1
2018-03-21T04:55:28.795Z,0.9
2018-03-21T04:56:31.458Z,0.9
2018-03-21T04:57:33.819Z,0.9
2018-03-21T04:58:36.190Z,1.3
2018-03-21T04:59:38.548Z,1.3
2018-03-21T05:00:40.914Z,1.3
2018-03-21T05:01:43.282Z,0.9
2018-03-21T05:02:45.929Z,0.9
2018-03-21T05:03:48.586Z,0.9
2018-03-21T05:04:50.952Z,0.9
2018-03-21T05:05:53.594Z,0.9
2018-03-21T05:06:55.960Z,0.9
2018-03-21T05:07:58.328Z,1
2018-03-21T05:09:00.690Z,1.1
2018-03-21T05:10:03.346Z,1.2
2018-03-21T05:11:06.018Z,1.2
2018-03-21T05:12:08.436Z,1.1
2018-03-21T05:13:10.756Z,1.1
2018-03-21T05:14:13.116Z,1
2018-03-21T05:15:15.763Z,1
2018-03-21T05:16:18.130Z,0.9
2018-03-21T05:17:20.500Z,0.9
2018-03-21T05:18:23.167Z,0.9
2018-03-21T05:19:25.528Z,1.2
2018-03-21T05:20:27.895Z,1.3
2018-03-21T05:21:30.549Z,1.2
2018-03-21T05:22:33.192Z,1.1
2018-03-21T05:23:35.861Z,1.2
2018-03-21T05:24:38.226Z,1.2
2018-03-21T05:25:40.884Z,1.2
2018-03-21T05:26:43.248Z,1.2
2018-03-21T05:27:45.907Z,1.1
2018-03-21T05:28:48.278Z,1
2018-03-21T05:29:50.645Z,0.9
2018-03-21T05:30:53.008Z,1.3
2018-03-21T05:31:55.371Z,1.3
2018-03-21T05:32:58.025Z,1.3
2018-03-21T05:34:00.390Z,1.2
2018-03-21T05:35:03.035Z,1.3
2018-03-21T05:36:05.406Z,1
2018-03-21T05:37:08.050Z,1
2018-03-21T05:38:10.420Z,0.9
2018-03-21T05:39:12.793Z,1
2018-03-21T05:40:15.164Z,1
2018-03-21T05:41:17.818Z,1
2018-03-21T05:42:20.182Z,1.2
2018-03-21T05:43:22.551Z,1.4
2018-03-21T05:44:24.912Z,1.2
2018-03-21T05:45:27.861Z,0.9
2018-03-21T05:46:30.222Z,1
2018-03-21T05:47:32.594Z,1.2
2018-03-21T05:48:34.960Z,1
2018-03-21T05:49:37.328Z,0.9
2018-03-21T05:50:39.695Z,1.3
2018-03-21T05:51:42.358Z,1.4
2018-03-21T05:52:44.726Z,1.2
2018-03-21T05:53:47.078Z,1.3
2018-03-21T05:54:49.740Z,1.2
2018-03-21T05:55:52.116Z,1.2
2018-03-21T05:56:54.484Z,1
2018-03-21T05:57:56.862Z,1
2018-03-21T05:58:59.213Z,0.9
2018-03-21T06:00:01.580Z,1
2018-03-21T06:01:03.954Z,1.3
2018-03-21T06:02:06.320Z,1.4
2018-03-21T06:03:08.676Z,1.1
2018-03-21T06:04:11.048Z,1.1
2018-03-21T06:05:13.416Z,1
2018-03-21T06:06:15.787Z,1
2018-03-21T06:07:18.172Z,0.9
2018-03-21T06:08:20.803Z,1
2018-03-21T06:09:23.457Z,1.4
2018-03-21T06:10:25.828Z,1.3
2018-03-21T06:11:28.187Z,1.4
2018-03-21T06:12:30.552Z,1.2
2018-03-21T06:13:32.919Z,1.1
2018-03-21T06:14:35.293Z,1
2018-03-21T06:15:37.658Z,0.9
2018-03-21T06:16:40.028Z,0.9
2018-03-21T06:17:42.386Z,1.3
2018-03-21T06:18:44.754Z,1.3
2018-03-21T06:19:47.129Z,1.2
2018-03-21T06:20:49.780Z,1.2
2018-03-21T06:21:52.173Z,1
2018-03-21T06:22:54.904Z,1.2
2018-03-21T06:23:57.271Z,1
2018-03-21T06:24:59.629Z,1
2018-03-21T06:26:02.304Z,0.9
2018-03-21T06:27:04.663Z,1
2018-03-21T06:28:07.035Z,1.2
2018-03-21T06:29:09.401Z,1.3
2018-03-21T06:30:11.770Z,1.3
2018-03-21T06:31:14.132Z,1.2
2018-03-21T06:32:16.509Z,1
2018-03-21T06:33:18.864Z,1
2018-03-21T06:34:21.236Z,1
2018-03-21T06:35:23.602Z,1.2
2018-03-21T06:36:26.248Z,1.4
2018-03-21T06:37:28.615Z,1.3
2018-03-21T06:38:31.270Z,1.1
2018-03-21T06:39:33.629Z,1.2
2018-03-21T06:40:35.997Z,1
2018-03-21T06:41:38.365Z,1
2018-03-21T06:42:40.732Z,1
2018-03-21T06:43:43.099Z,1
2018-03-21T06:44:45.470Z,1.3
2018-03-21T06:45:47.829Z,1.2
2018-03-21T06:46:50.210Z,1.4
2018-03-21T06:47:52.581Z,1.2
2018-03-21T06:48:54.952Z,1
2018-03-21T06:49:57.337Z,1
2018-03-21T06:50:59.678Z,1
2018-03-21T06:52:02.043Z,1.1
2018-03-21T06:53:04.406Z,1.4
2018-03-21T06:54:06.778Z,1
2018-03-21T06:55:09.167Z,1.2
2018-03-21T06:56:11.530Z,1
2018-03-21T06:57:13.904Z,1
2018-03-21T06:58:16.560Z,1
2018-03-21T06:59:19.514Z,1.3
2018-03-21T07:00:21.885Z,1
2018-03-21T07:01:24.245Z,1.3
2018-03-21T07:02:26.613Z,1.3
2018-03-21T07:03:29.562Z,1.3
2018-03-21T07:04:31.926Z,1.3
2018-03-21T07:05:34.300Z,1.1
2018-03-21T07:06:36.952Z,1
2018-03-21T07:07:39.312Z,1
2018-03-21T07:08:41.685Z,1
2018-03-21T07:09:44.098Z,0.9
2018-03-21T07:10:46.429Z,1.4
2018-03-21T07:11:48.796Z,1.4
2018-03-21T07:12:51.167Z,1.3
2018-03-21T07:13:53.536Z,1.3
2018-03-21T07:14:55.904Z,1.1
2018-03-21T07:15:58.277Z,1
2018-03-21T07:17:00.921Z,1
2018-03-21T07:18:03.294Z,1.4
2018-03-21T07:19:05.686Z,1.2
2018-03-21T07:20:08.349Z,1.3
2018-03-21T07:21:10.715Z,1.3
2018-03-21T07:22:13.088Z,1.3
2018-03-21T07:23:15.452Z,1
2018-03-21T07:24:17.819Z,1
2018-03-21T07:25:20.196Z,1
2018-03-21T07:26:22.845Z,1
2018-03-21T07:27:25.788Z,1.4
2018-03-21T07:28:28.156Z,1.3
2018-03-21T07:29:30.519Z,1.3
2018-03-21T07:30:32.890Z,1.4
2018-03-21T07:31:35.260Z,1.2
2018-03-21T07:32:37.667Z,1.2
2018-03-21T07:33:40.005Z,1
2018-03-21T07:34:42.376Z,1
2018-03-21T07:35:44.741Z,1.1
2018-03-21T07:36:47.120Z,1.3
2018-03-21T07:37:49.515Z,1.3
2018-03-21T07:38:52.190Z,1.3
2018-03-21T07:39:54.565Z,1.1
2018-03-21T07:40:56.932Z,1.1
2018-03-21T07:41:59.578Z,1.1
2018-03-21T07:43:02.280Z,1.1
2018-03-21T07:44:04.937Z,1
2018-03-21T07:45:07.678Z,1
2018-03-21T07:46:10.015Z,1.1
2018-03-21T07:47:12.672Z,1.3
2018-03-21T07:48:15.036Z,1.4
2018-03-21T07:49:17.406Z,1.3
2018-03-21T07:50:19.792Z,1.3
2018-03-21T07:51:22.157Z,1.2
2018-03-21T07:52:24.811Z,1.1
2018-03-21T07:53:27.179Z,1.1
2018-03-21T07:54:29.826Z,1.1
2018-03-21T07:55:32.204Z,1.7
2018-03-21T07:56:34.578Z,1.3
2018-03-21T07:57:36.941Z,1.5
2018-03-21T07:58:39.319Z,1.3
2018-03-21T07:59:41.694Z,1.1
2018-03-21T08:00:47.125Z,1.1
2018-03-21T08:01:49.548Z,1.1
2018-03-21T08:02:52.273Z,1.1
2018-03-21T08:03:54.704Z,1.5
2018-03-21T08:04:57.124Z,1.4
2018-03-21T08:05:59.553Z,1.3
2018-03-21T08:07:01.995Z,1.3
2018-03-21T08:08:04.717Z,1.4
2018-03-21T08:09:08.008Z,1.3
2018-03-21T08:10:10.725Z,1.3
2018-03-21T08:11:13.436Z,1.3
2018-03-21T08:12:16.155Z,1.2
2018-03-21T08:13:18.581Z,1.3
2018-03-21T08:14:20.997Z,1.1
2018-03-21T08:15:23.429Z,1.1
2018-03-21T08:16:26.148Z,1.1
2018-03-21T08:17:28.572Z,1.6
2018-03-21T08:18:31.006Z,1.4
2018-03-21T08:19:33.488Z,1.7
2018-03-21T08:20:36.003Z,1.6
2018-03-21T08:21:38.418Z,1.2
2018-03-21T08:22:40.852Z,1.1
2018-03-21T08:23:43.271Z,1.1
2018-03-21T08:24:45.710Z,1.1
2018-03-21T08:25:48.730Z,1.2
2018-03-21T08:26:51.173Z,1.1
2018-03-21T08:27:53.603Z,1.5
2018-03-21T08:28:56.041Z,1.5
2018-03-21T08:29:58.460Z,1.6
2018-03-21T08:31:00.894Z,1.1
2018-03-21T08:32:03.364Z,1.2
2018-03-21T08:33:06.045Z,1.1
2018-03-21T08:34:08.477Z,1.1
2018-03-21T08:35:10.919Z,1.1
2018-03-21T08:36:13.341Z,1.2
2018-03-21T08:37:16.126Z,1.5
2018-03-21T08:38:18.561Z,1.3
2018-03-21T08:39:21.829Z,1.4
2018-03-21T08:40:24.560Z,1.5
2018-03-21T08:41:27.281Z,1.7
2018-03-21T08:42:29.715Z,1.4
2018-03-21T08:43:32.159Z,1.2
2018-03-21T08:44:34.608Z,1.3
2018-03-21T08:45:37.046Z,1.1
2018-03-21T08:46:39.787Z,1.2
2018-03-21T08:47:42.782Z,1.2
2018-03-21T08:48:46.679Z,1.7
2018-03-21T08:49:49.346Z,1.3
2018-03-21T08:50:51.853Z,1.3
2018-03-21T08:51:54.559Z,1.2
2018-03-21T08:52:57.002Z,1.2
2018-03-21T08:53:59.501Z,1.2
2018-03-21T08:55:01.939Z,1.3
2018-03-21T08:56:04.444Z,1.5
2018-03-21T08:57:07.296Z,1.6
2018-03-21T08:58:09.724Z,1.5
2018-03-21T08:59:12.235Z,1.5
2018-03-21T09:00:14.667Z,1.5
2018-03-21T09:01:17.106Z,1.3
2018-03-21T09:02:19.549Z,1.2
2018-03-21T09:03:21.990Z,1.1
2018-03-21T09:04:24.416Z,1.3
2018-03-21T09:05:26.844Z,1.6
2018-03-21T09:06:29.306Z,1.7
2018-03-21T09:07:31.789Z,1.4
2018-03-21T09:08:34.181Z,1.4
2018-03-21T09:09:36.949Z,1.2
2018-03-21T09:10:39.380Z,1.2
2018-03-21T09:11:41.833Z,1.2
2018-03-21T09:12:44.574Z,1.6
2018-03-21T09:13:47.015Z,1.6
2018-03-21T09:14:49.469Z,1.8
2018-03-21T09:15:51.913Z,1.4
2018-03-21T09:16:54.340Z,1.4
2018-03-21T09:17:57.086Z,1.3
2018-03-21T09:18:59.531Z,1.2
2018-03-21T09:20:01.968Z,1.2
2018-03-21T09:21:04.396Z,1.7
2018-03-21T09:22:06.835Z,1.6
2018-03-21T09:23:09.343Z,1.5
2018-03-21T09:24:12.064Z,1.7
2018-03-21T09:25:14.492Z,1.6
2018-03-21T09:26:16.919Z,1.3
2018-03-21T09:27:19.552Z,1.3
2018-03-21T09:28:22.266Z,1.2
2018-03-21T09:29:24.978Z,1.3
2018-03-21T09:30:27.415Z,1.7
2018-03-21T09:31:29.852Z,1.8
2018-03-21T09:32:32.590Z,1.7
2018-03-21T09:33:35.062Z,1.7
2018-03-21T09:34:37.517Z,1.7
2018-03-21T09:35:40.263Z,1.4
2018-03-21T09:36:42.734Z,1.4
2018-03-21T09:37:45.171Z,1.3
2018-03-21T09:38:48.091Z,1.3
2018-03-21T09:39:50.535Z,1.9
2018-03-21T09:40:52.964Z,1.6
2018-03-21T09:41:55.386Z,1.7
2018-03-21T09:42:57.817Z,1.5
2018-03-21T09:44:00.255Z,1.6
2018-03-21T09:45:02.982Z,1.6
2018-03-21T09:46:05.700Z,1.5
2018-03-21T09:47:08.451Z,1.4
2018-03-21T09:48:10.879Z,1.9
2018-03-21T09:49:13.607Z,1.8
2018-03-21T09:50:16.332Z,2
2018-03-21T09:51:18.764Z,2
2018-03-21T09:52:21.196Z,1.9
2018-03-21T09:53:23.637Z,1.9
2018-03-21T09:54:26.078Z,1.7
2018-03-21T09:55:28.510Z,1.5
2018-03-21T09:56:30.955Z,1.5
2018-03-21T09:57:33.385Z,1.8
2018-03-21T09:58:35.819Z,2
2018-03-21T09:59:38.271Z,1.8
2018-03-21T10:00:40.739Z,1.6
2018-03-21T10:01:43.435Z,1.6
2018-03-21T10:02:45.875Z,1.5
2018-03-21T10:03:48.309Z,1.5
2018-03-21T10:04:50.794Z,1.5
2018-03-21T10:05:53.258Z,1.8
2018-03-21T10:06:55.694Z,1.9
2018-03-21T10:07:58.117Z,1.5
2018-03-21T10:09:00.865Z,1.5
2018-03-21T10:10:03.278Z,1.6
2018-03-21T10:11:05.733Z,1.5
2018-03-21T10:12:08.167Z,1.5
2018-03-21T10:13:10.605Z,1.9
2018-03-21T10:14:13.035Z,2
2018-03-21T10:15:15.474Z,1.4
2018-03-21T10:16:18.206Z,1.5
2018-03-21T10:17:20.698Z,1.5
2018-03-21T10:18:23.137Z,1.5
2018-03-21T10:19:25.874Z,1.9
2018-03-21T10:20:29.169Z,1.7
2018-03-21T10:21:31.923Z,2.1
2018-03-21T10:22:34.354Z,2.1
2018-03-21T10:23:36.794Z,2.2
2018-03-21T10:24:39.252Z,2
2018-03-21T10:25:41.693Z,1.8
2018-03-21T10:26:44.241Z,1.6
2018-03-21T10:27:46.975Z,1.5
2018-03-21T10:28:49.414Z,1.6
2018-03-21T10:29:51.851Z,1.6
2018-03-21T10:30:54.538Z,1.8
2018-03-21T10:31:56.990Z,1.9
2018-03-21T10:32:59.434Z,1.9
2018-03-21T10:34:01.881Z,1.6
2018-03-21T10:35:04.897Z,1.7
2018-03-21T10:36:07.342Z,1.7
2018-03-21T10:37:10.067Z,1.6
2018-03-21T10:38:12.516Z,2.4
2018-03-21T10:39:14.952Z,2.2
2018-03-21T10:40:17.399Z,2
2018-03-21T10:41:19.837Z,1.8
2018-03-21T10:42:22.283Z,2
2018-03-21T10:43:24.720Z,1.5
2018-03-21T10:44:27.161Z,1.8
2018-03-21T10:45:29.610Z,2
2018-03-21T10:46:32.060Z,2
2018-03-21T10:47:34.780Z,1.9
2018-03-21T10:48:37.217Z,1.8
2018-03-21T10:49:39.949Z,2.3
2018-03-21T10:50:42.385Z,1.7
2018-03-21T10:51:44.833Z,1.6
2018-03-21T10:52:47.616Z,2.2
2018-03-21T10:53:50.050Z,2.3
2018-03-21T10:54:52.794Z,2.1
2018-03-21T10:55:55.537Z,2.1
2018-03-21T10:56:57.974Z,2
2018-03-21T10:58:00.421Z,1.9
2018-03-21T10:59:02.861Z,1.9
2018-03-21T11:00:05.293Z,2.4
2018-03-21T11:01:07.744Z,2.1
2018-03-21T11:02:10.187Z,2.2
2018-03-21T11:03:12.925Z,2
2018-03-21T11:04:15.370Z,2
2018-03-21T11:05:17.810Z,1.9
2018-03-21T11:06:20.542Z,2
2018-03-21T11:07:23.286Z,2.4
2018-03-21T11:08:26.008Z,2.4
2018-03-21T11:09:28.737Z,2
2018-03-21T11:10:31.184Z,2.2
2018-03-21T11:11:33.617Z,2
2018-03-21T11:12:36.064Z,2.1
2018-03-21T11:13:38.511Z,1.7
2018-03-21T11:14:40.940Z,1.5
2018-03-21T11:15:43.381Z,1.8
2018-03-21T11:16:46.688Z,2.3
2018-03-21T11:17:49.134Z,2.1
2018-03-21T11:18:51.575Z,1.8
2018-03-21T11:19:54.003Z,1.9
2018-03-21T11:20:56.451Z,1.8
2018-03-21T11:21:58.903Z,1.6
2018-03-21T11:23:01.349Z,1.8
2018-03-21T11:24:03.788Z,2
2018-03-21T11:25:06.227Z,2.1
2018-03-21T11:26:08.659Z,1.6
2018-03-21T11:27:11.099Z,1.5
2018-03-21T11:28:13.537Z,1.6
2018-03-21T11:29:15.968Z,1.5
2018-03-21T11:30:19.001Z,2.1
2018-03-21T11:31:21.430Z,2.2
2018-03-21T11:32:24.008Z,2
2018-03-21T11:33:26.736Z,1.6
2018-03-21T11:34:29.162Z,1.9
2018-03-21T11:35:31.967Z,1.8
2018-03-21T11:36:34.409Z,1.5
2018-03-21T11:37:37.134Z,1.5
2018-03-21T11:38:39.569Z,1.6
2018-03-21T11:39:42.017Z,1.5
2018-03-21T11:40:44.453Z,1.9
2018-03-21T11:41:46.896Z,1.7
2018-03-21T11:42:49.333Z,1.5
2018-03-21T11:43:51.760Z,1.5
2018-03-21T11:44:54.795Z,1.6
2018-03-21T11:45:57.325Z,1.6
2018-03-21T11:46:59.763Z,1.4
2018-03-21T11:48:02.489Z,1.6
2018-03-21T11:49:04.966Z,1.8
2018-03-21T11:50:07.405Z,2.1
2018-03-21T11:51:09.891Z,1.6
2018-03-21T11:52:12.346Z,1.6
2018-03-21T11:53:14.783Z,1.6
2018-03-21T11:54:17.217Z,1.7
2018-03-21T11:55:19.756Z,2
2018-03-21T11:56:22.779Z,1.9
2018-03-21T11:57:25.176Z,2
2018-03-21T11:58:27.620Z,2
2018-03-21T11:59:30.057Z,1.9
2018-03-21T12:00:32.489Z,1.7
2018-03-21T12:01:35.216Z,1.6
2018-03-21T12:02:37.961Z,1.5
2018-03-21T12:03:40.400Z,1.5
2018-03-21T12:04:42.841Z,1.8
2018-03-21T12:05:45.277Z,2
2018-03-21T12:06:47.821Z,1.7
2018-03-21T12:07:50.259Z,1.6
2018-03-21T12:08:52.690Z,1.6
2018-03-21T12:09:55.129Z,1.5
2018-03-21T12:10:57.568Z,1.7
2018-03-21T12:12:00.602Z,1.8
2018-03-21T12:13:03.101Z,2.1
2018-03-21T12:14:05.547Z,2
2018-03-21T12:15:07.994Z,1.7
2018-03-21T12:16:10.727Z,1.7
2018-03-21T12:17:13.446Z,1.4
2018-03-21T12:18:15.892Z,1.5
2018-03-21T12:19:18.349Z,1.4
2018-03-21T12:20:20.788Z,1.4
2018-03-21T12:21:23.224Z,1.9
2018-03-21T12:22:25.665Z,2
2018-03-21T12:23:28.204Z,1.5
2018-03-21T12:24:30.645Z,1.4
2018-03-21T12:25:33.660Z,1.4
2018-03-21T12:26:36.091Z,1.4
2018-03-21T12:27:38.810Z,1.4
2018-03-21T12:28:41.248Z,1.9
2018-03-21T12:29:43.690Z,1.7
2018-03-21T12:30:46.455Z,1.8
2018-03-21T12:31:48.877Z,1.8
2018-03-21T12:32:51.340Z,1.8
2018-03-21T12:33:53.756Z,2
2018-03-21T12:34:56.193Z,1.5
2018-03-21T12:35:58.931Z,1.3
2018-03-21T12:37:01.364Z,1.9
2018-03-21T12:38:03.798Z,1.5
2018-03-21T12:39:06.242Z,1.6
2018-03-21T12:40:08.948Z,1.5
2018-03-21T12:41:11.383Z,1.4
2018-03-21T12:42:13.813Z,1.8
2018-03-21T12:43:16.262Z,1.3
2018-03-21T12:44:18.770Z,1.3
2018-03-21T12:45:21.193Z,1.3
2018-03-21T12:46:23.631Z,1.8
2018-03-21T12:47:26.357Z,1.4
2018-03-21T12:48:29.073Z,1.6
2018-03-21T12:49:31.810Z,1.7
2018-03-21T12:50:34.234Z,1.7
2018-03-21T12:51:36.664Z,1.4
2018-03-21T12:52:39.248Z,1.2
2018-03-21T12:53:41.988Z,1.3
2018-03-21T12:54:45.538Z,1.3
2018-03-21T12:55:48.543Z,1.8
2018-03-21T12:56:50.926Z,1.2
2018-03-21T12:57:53.365Z,1.2
2018-03-21T12:58:55.804Z,1.3
2018-03-21T12:59:58.234Z,1.6
2018-03-21T13:01:00.679Z,1.6
2018-03-21T13:02:03.416Z,1.3
2018-03-21T13:03:08.406Z,1.6
2018-03-21T13:04:10.908Z,1.4
2018-03-21T13:05:14.773Z,1.8
2018-03-21T13:06:17.755Z,1.4
2018-03-21T13:07:20.427Z,1.4
2018-03-21T13:08:22.980Z,1.5
2018-03-21T13:09:25.457Z,1.3
2018-03-21T13:10:27.900Z,1.2
2018-03-21T13:11:30.425Z,1.2
2018-03-21T13:12:33.091Z,1.8
2018-03-21T13:13:35.604Z,1.7
2018-03-21T13:14:37.980Z,1.6
2018-03-21T13:15:40.778Z,1.4
2018-03-21T13:16:43.301Z,1.4
2018-03-21T13:17:46.058Z,1.5
2018-03-21T13:18:48.513Z,1.3
2018-03-21T13:19:51.017Z,1.2
2018-03-21T13:20:53.687Z,1.3
2018-03-21T13:21:56.181Z,1.2
2018-03-21T13:22:59.423Z,1.3
2018-03-21T13:24:02.022Z,1.4
2018-03-21T13:25:05.385Z,1.5
2018-03-21T13:26:08.113Z,1.7
2018-03-21T13:27:10.872Z,1.3
2018-03-21T13:28:13.402Z,1.3
2018-03-21T13:29:15.842Z,1.3
2018-03-21T13:30:18.292Z,1.5
2018-03-21T13:31:21.064Z,1.8
2018-03-21T13:32:24.162Z,1.4
2018-03-21T13:33:27.332Z,1.6
2018-03-21T13:34:31.192Z,1.7
2018-03-21T13:35:34.047Z,1.7
2018-03-21T13:36:36.897Z,1.3
2018-03-21T13:37:39.504Z,1.2
2018-03-21T13:38:42.059Z,1.2
2018-03-21T13:39:44.494Z,1.6
2018-03-21T13:40:46.925Z,1.7
2018-03-21T13:41:49.539Z,1.5
2018-03-21T13:42:51.991Z,1.6
2018-03-21T13:43:54.731Z,1.7
2018-03-21T13:44:57.161Z,1.3
2018-03-21T13:45:59.907Z,1.5
2018-03-21T13:47:02.639Z,1.3
2018-03-21T13:48:05.282Z,1.2
2018-03-21T13:49:08.020Z,1.3
2018-03-21T13:50:10.582Z,1.2
2018-03-21T13:51:13.052Z,1.2
2018-03-21T13:52:15.494Z,1.7
2018-03-21T13:53:17.949Z,1.7
2018-03-21T13:54:20.671Z,1.5
2018-03-21T13:55:23.108Z,1.4
2018-03-21T13:56:25.644Z,1.8
2018-03-21T13:57:28.064Z,1.3
2018-03-21T13:58:30.500Z,1.3
2018-03-21T13:59:32.936Z,1.3
2018-03-21T14:00:35.363Z,1.2
2018-03-21T14:01:38.091Z,1.7
2018-03-21T14:02:40.522Z,1.5
2018-03-21T14:03:43.268Z,1.5
2018-03-21T14:04:45.713Z,1.7
2018-03-21T14:05:48.579Z,1.4
2018-03-21T14:06:51.023Z,1.5
2018-03-21T14:07:54.522Z,1.2
2018-03-21T14:08:56.961Z,1.3
2018-03-21T14:09:59.588Z,1.6
2018-03-21T14:11:02.073Z,1.2
2018-03-21T14:12:04.741Z,1.2
2018-03-21T14:13:07.418Z,1.3
2018-03-21T14:14:09.880Z,1.6
2018-03-21T14:15:12.350Z,1.6
2018-03-21T14:16:14.793Z,1.5
2018-03-21T14:17:17.239Z,1.7
2018-03-21T14:18:19.671Z,1.7
2018-03-21T14:19:22.400Z,1.5
2018-03-21T14:20:24.829Z,1.2
2018-03-21T14:21:27.280Z,1.3
2018-03-21T14:22:30.135Z,1.2
2018-03-21T14:23:32.559Z,1.6
2018-03-21T14:24:35.003Z,1.4
2018-03-21T14:25:37.436Z,1.7
2018-03-21T14:26:40.157Z,1.6
2018-03-21T14:27:43.185Z,1.5
2018-03-21T14:28:45.618Z,1.7
2018-03-21T14:29:48.332Z,1.3